Time;durP1;ratioP1;P1;durP2;ratioP2;P2;SDS_P1;SDS_P2;PMS_P1;PMS_P2;Temp;Humidity;BMP_temperature;BMP_pressure;BME280_temperature;BME280_humidity;BME280_pressure;Samples;Min_cycle;Max_cycle;Signal;HPM_P1;HPM_P2
2022/09/29 00:02:16;;;;;;;5.65;3.20;;;7.80;99.90;;;;;;6280102;28;20049;-79
2022/09/29 00:05:18;;;;;;;4.60;2.50;;;7.80;99.90;;;;;;6280077;28;20098;-78
2022/09/29 00:08:24;;;;;;;6.82;2.53;;;7.90;99.90;;;;;;6279283;28;20056;-78
2022/09/29 00:11:25;;;;;;;16.98;5.10;;;7.90;99.90;;;;;;6280270;28;20623;-78
2022/09/29 00:14:27;;;;;;;15.60;3.20;;;7.90;99.90;;;;;;6279351;28;20049;-78
2022/09/29 00:17:29;;;;;;;6.45;2.50;;;7.90;99.90;;;;;;6279990;28;20049;-78
2022/09/29 00:20:31;;;;;;;5.40;3.33;;;7.90;99.90;;;;;;6278548;28;20045;-77
2022/09/29 00:23:36;;;;;;;6.97;3.00;;;7.80;99.90;;;;;;6277247;28;20120;-78
2022/09/29 00:26:38;;;;;;;5.75;2.90;;;7.80;99.90;;;;;;6277356;28;20060;-78
2022/09/29 00:29:39;;;;;;;7.82;2.78;;;7.80;99.90;;;;;;6277781;28;20049;-79
2022/09/29 00:32:41;;;;;;;13.65;2.78;;;7.80;99.90;;;;;;6277431;28;20052;-78
2022/09/29 00:35:43;;;;;;;8.50;3.65;;;7.80;99.90;;;;;;6277880;28;20045;-79
2022/09/29 00:38:47;;;;;;;8.50;3.03;;;7.70;99.90;;;;;;6270717;28;20045;-78
2022/09/29 00:41:49;;;;;;;4.85;2.58;;;7.70;99.90;;;;;;6261311;28;20045;-78
2022/09/29 00:45:19;;;;;;;7.57;3.13;;;7.80;99.90;;;;;;6251647;28;20045;-78
2022/09/29 00:48:32;;;;;;;4.82;2.85;;;7.90;99.90;;;;;;6253187;28;20061;-78
2022/09/29 00:51:36;;;;;;;5.75;2.90;;;8.00;99.90;;;;;;6252063;28;20052;-78
2022/09/29 00:54:44;;;;;;;5.82;2.53;;;8.10;99.90;;;;;;6252300;28;20056;-78
2022/09/29 00:57:51;;;;;;;4.60;2.35;;;8.20;99.90;;;;;;6253337;28;20502;-79
2022/09/29 01:00:54;;;;;;;5.72;2.47;;;8.30;99.90;;;;;;6252135;28;20056;-78
2022/09/29 01:04:00;;;;;;;5.47;3.03;;;8.40;99.90;;;;;;6252954;28;20046;-78
2022/09/29 01:07:02;;;;;;;6.55;2.78;;;8.40;99.90;;;;;;6252095;28;20053;-79
2022/09/29 01:10:07;;;;;;;9.68;3.65;;;8.50;99.90;;;;;;6253365;28;20060;-79
2022/09/29 01:13:09;;;;;;;9.43;2.75;;;8.60;99.90;;;;;;6253635;28;20042;-78
2022/09/29 01:16:11;;;;;;;10.35;2.75;;;8.70;99.90;;;;;;6258898;28;20049;-79
2022/09/29 01:19:16;;;;;;;9.52;2.70;;;8.80;99.90;;;;;;6270612;28;20139;-79
2022/09/29 01:22:39;;;;;;;5.68;3.35;;;8.90;99.90;;;;;;6258501;28;20049;-79
2022/09/29 01:26:10;;;;;;;5.18;2.90;;;8.90;99.90;;;;;;6253204;28;20045;-79
2022/09/29 01:29:36;;;;;;;4.85;2.55;;;9.00;99.90;;;;;;6248511;28;20041;-78
2022/09/29 01:33:10;;;;;;;4.80;2.30;;;9.10;99.90;;;;;;6252351;28;20057;-79
2022/09/29 01:36:22;;;;;;;8.55;2.55;;;9.10;99.90;;;;;;6252512;28;20053;-79
2022/09/29 01:39:31;;;;;;;5.50;2.38;;;9.20;99.90;;;;;;6252435;28;20053;-79
2022/09/29 01:42:36;;;;;;;;;;;9.30;99.90;;;;;;6254060;28;20041;-79
2022/09/29 01:45:41;;;;;;;6.53;2.80;;;9.30;99.90;;;;;;6253542;28;20385;-79
2022/09/29 01:48:48;;;;;;;5.60;3.00;;;9.30;99.90;;;;;;6252278;28;20049;-79
2022/09/29 01:51:54;;;;;;;5.05;2.78;;;9.30;99.90;;;;;;6252462;28;20041;-79
2022/09/29 01:54:59;;;;;;;4.97;2.47;;;9.30;99.90;;;;;;6250622;28;20049;-79
2022/09/29 01:58:05;;;;;;;8.85;3.25;;;9.30;99.90;;;;;;6252187;28;20056;-79
2022/09/29 02:01:11;;;;;;;8.48;2.53;;;9.30;99.90;;;;;;6250960;28;20053;-78
2022/09/29 02:04:18;;;;;;;4.75;2.55;;;9.30;99.90;;;;;;6251123;28;20050;-78
2022/09/29 02:07:24;;;;;;;6.43;2.70;;;9.40;99.90;;;;;;6250690;28;20056;-79
2022/09/29 02:10:30;;;;;;;7.75;2.75;;;9.50;99.90;;;;;;6250981;28;20049;-78
2022/09/29 02:13:38;;;;;;;7.38;2.65;;;9.50;99.90;;;;;;6251658;28;20045;-78
2022/09/29 02:16:43;;;;;;;7.30;3.07;;;9.60;99.90;;;;;;6250612;28;20045;-78
2022/09/29 02:19:49;;;;;;;8.07;3.60;;;9.70;99.90;;;;;;6250661;28;20060;-78
2022/09/29 02:22:50;;;;;;;12.02;3.25;;;9.70;99.90;;;;;;6251202;28;20037;-79
2022/09/29 02:25:53;;;;;;;11.45;3.90;;;9.80;99.90;;;;;;6252018;28;20058;-78
2022/09/29 02:28:55;;;;;;;4.78;2.35;;;9.80;99.90;;;;;;6251162;28;20049;-79
2022/09/29 02:32:00;;;;;;;5.43;2.10;;;9.90;99.90;;;;;;6252074;28;20042;-78
2022/09/29 02:35:07;;;;;;;5.93;2.35;;;9.90;99.90;;;;;;6252101;28;20041;-79
2022/09/29 02:38:16;;;;;;;3.95;2.40;;;9.80;99.90;;;;;;6252248;28;20049;-79
2022/09/29 02:41:33;;;;;;;6.95;2.90;;;9.70;99.90;;;;;;6251520;28;20422;-78
2022/09/29 02:44:51;;;;;;;6.15;2.78;;;9.60;99.90;;;;;;6251639;28;20223;-79
2022/09/29 02:48:13;;;;;;;8.15;2.97;;;9.50;99.90;;;;;;6251424;28;20075;-78
2022/09/29 02:51:22;;;;;;;6.25;3.38;;;9.40;99.90;;;;;;6250382;28;20418;-79
2022/09/29 02:54:42;;;;;;;7.22;2.90;;;9.40;99.90;;;;;;6252029;28;20104;-78
2022/09/29 02:57:50;;;;;;;6.95;3.22;;;9.30;99.90;;;;;;6251075;28;20334;-78
2022/09/29 03:00:53;;;;;;;7.65;3.15;;;9.30;99.90;;;;;;6250334;28;20045;-78
2022/09/29 03:03:55;;;;;;;6.38;3.10;;;9.30;99.90;;;;;;6252614;28;20065;-77
2022/09/29 03:06:58;;;;;;;11.05;2.40;;;9.20;99.90;;;;;;6251280;28;20045;-78
2022/09/29 03:10:00;;;;;;;9.15;2.58;;;9.20;99.90;;;;;;6252289;28;20052;-78
2022/09/29 03:13:02;;;;;;;6.43;2.55;;;9.20;99.90;;;;;;6250871;28;20069;-78
2022/09/29 03:16:03;;;;;;;6.72;2.50;;;9.20;99.90;;;;;;6250694;28;20052;-77
2022/09/29 03:19:06;;;;;;;5.65;2.83;;;9.20;99.90;;;;;;6251134;28;20489;-78
2022/09/29 03:22:09;;;;;;;10.25;2.72;;;9.10;99.90;;;;;;6251266;28;20052;-78
2022/09/29 03:25:12;;;;;;;6.40;2.50;;;9.10;99.90;;;;;;6251519;28;20057;-79
2022/09/29 03:28:15;;;;;;;9.05;2.55;;;9.10;99.90;;;;;;6251100;28;20056;-78
2022/09/29 03:31:17;;;;;;;6.97;3.05;;;9.10;99.90;;;;;;6251132;28;20404;-77
2022/09/29 03:34:18;;;;;;;6.25;2.50;;;9.00;99.90;;;;;;6251018;28;20054;-78
2022/09/29 03:37:21;;;;;;;6.95;2.78;;;9.00;99.90;;;;;;6250701;28;20050;-77
2022/09/29 03:40:23;;;;;;;6.45;2.88;;;8.90;99.90;;;;;;6250569;28;20046;-78
2022/09/29 03:43:25;;;;;;;5.32;2.92;;;8.90;99.90;;;;;;6251206;28;20041;-78
2022/09/29 03:46:27;;;;;;;4.68;2.60;;;8.90;99.90;;;;;;6251271;28;20046;-78
2022/09/29 03:49:28;;;;;;;6.88;2.90;;;8.90;99.90;;;;;;6251319;28;20050;-78
2022/09/29 03:52:31;;;;;;;5.57;2.78;;;8.90;99.90;;;;;;6251036;28;20100;-79
2022/09/29 03:55:33;;;;;;;7.55;3.15;;;8.90;99.90;;;;;;6251045;28;20045;-78
2022/09/29 03:58:35;;;;;;;5.70;2.78;;;8.90;99.90;;;;;;6251024;28;20057;-78
2022/09/29 04:01:37;;;;;;;7.28;2.80;;;8.90;99.90;;;;;;6250626;28;20056;-78
2022/09/29 04:04:38;;;;;;;12.07;3.28;;;8.80;99.90;;;;;;6249997;28;20049;-78
2022/09/29 04:07:41;;;;;;;11.20;3.33;;;8.80;99.90;;;;;;6249413;28;20052;-78
2022/09/29 04:10:45;;;;;;;7.00;3.20;;;8.70;99.90;;;;;;6250806;28;20041;-77
2022/09/29 04:13:47;;;;;;;4.72;2.33;;;8.70;99.90;;;;;;6250986;28;20057;-78
2022/09/29 04:16:49;;;;;;;7.95;3.67;;;8.60;99.90;;;;;;6251022;28;20095;-77
2022/09/29 04:19:50;;;;;;;7.22;2.85;;;8.60;99.90;;;;;;6253142;28;20042;-78
2022/09/29 04:22:54;;;;;;;5.18;2.47;;;8.50;99.90;;;;;;6254864;28;20045;-78
2022/09/29 04:25:55;;;;;;;6.65;2.78;;;8.50;99.90;;;;;;6255236;28;20064;-77
2022/09/29 04:28:57;;;;;;;7.38;3.13;;;8.50;99.90;;;;;;6254410;28;20049;-78
2022/09/29 04:31:59;;;;;;;4.70;2.70;;;8.50;99.90;;;;;;6253776;28;20045;-79
2022/09/29 04:35:01;;;;;;;6.60;3.25;;;8.50;99.90;;;;;;6254628;28;20037;-78
2022/09/29 04:38:04;;;;;;;4.63;3.00;;;8.40;99.90;;;;;;6254591;28;20045;-78
2022/09/29 04:41:06;;;;;;;8.93;3.63;;;8.40;99.90;;;;;;6254616;28;20696;-78
2022/09/29 04:44:08;;;;;;;7.88;2.53;;;8.30;99.90;;;;;;6254604;28;20057;-78
2022/09/29 04:47:09;;;;;;;4.05;2.20;;;8.30;99.90;;;;;;6254063;28;20049;-78
2022/09/29 04:50:11;;;;;;;10.38;2.92;;;8.30;99.90;;;;;;6254473;28;20053;-78
2022/09/29 04:53:14;;;;;;;7.07;2.15;;;8.40;99.90;;;;;;6252934;28;20045;-77
2022/09/29 04:56:16;;;;;;;12.65;3.13;;;8.40;99.90;;;;;;6267895;28;20053;-77
2022/09/29 04:59:17;;;;;;;8.88;3.22;;;8.30;99.90;;;;;;6274941;28;20046;-78
2022/09/29 05:02:19;;;;;;;8.45;3.08;;;8.30;99.90;;;;;;6271809;28;20073;-78
2022/09/29 05:05:21;;;;;;;6.25;2.80;;;8.30;99.90;;;;;;6257450;28;20057;-78
2022/09/29 05:08:24;;;;;;;10.13;2.85;;;8.30;99.90;;;;;;6252509;28;20060;-79
2022/09/29 05:11:25;;;;;;;7.20;2.50;;;8.40;99.90;;;;;;6251797;28;20061;-78
2022/09/29 05:14:27;;;;;;;5.13;2.53;;;8.40;99.90;;;;;;6251209;28;20045;-78
2022/09/29 05:17:29;;;;;;;4.40;2.45;;;8.50;99.90;;;;;;6251192;28;20049;-78
2022/09/29 05:20:30;;;;;;;11.63;2.25;;;8.50;99.90;;;;;;6250531;28;20076;-78
2022/09/29 05:23:33;;;;;;;7.03;2.35;;;8.50;99.90;;;;;;6251229;28;20045;-78
2022/09/29 05:26:35;;;;;;;5.57;2.75;;;8.50;99.90;;;;;;6251437;28;20057;-78
2022/09/29 05:29:37;;;;;;;7.65;3.03;;;8.50;99.90;;;;;;6252506;28;20045;-78
2022/09/29 05:32:38;;;;;;;9.30;3.38;;;8.50;99.90;;;;;;6252781;28;20053;-79
2022/09/29 05:35:40;;;;;;;7.18;3.00;;;8.50;99.90;;;;;;6253056;28;20045;-79
2022/09/29 05:38:43;;;;;;;9.23;2.97;;;8.60;99.90;;;;;;6252445;28;20046;-78
2022/09/29 05:41:45;;;;;;;8.48;3.05;;;8.60;99.90;;;;;;6253610;28;20053;-78
2022/09/29 05:44:46;;;;;;;4.97;2.95;;;8.70;99.90;;;;;;6253106;28;20052;-78
2022/09/29 05:47:48;;;;;;;5.93;3.17;;;8.80;99.90;;;;;;6252332;28;20053;-78
2022/09/29 05:50:50;;;;;;;10.20;4.00;;;8.90;99.90;;;;;;6273786;23;20548;-83
2022/09/29 05:53:54;;;;;;;11.15;3.70;;;9.00;99.90;;;;;;6274537;28;20041;-83
2022/09/29 05:56:55;;;;;;;8.73;3.60;;;9.10;99.90;;;;;;6274481;28;20051;-83
2022/09/29 05:59:57;;;;;;;17.73;3.85;;;9.20;99.90;;;;;;6274257;28;20068;-82
2022/09/29 06:03:00;;;;;;;10.60;4.60;;;9.30;99.90;;;;;;6273391;28;20041;-83
2022/09/29 06:06:06;;;;;;;11.98;2.92;;;9.40;99.90;;;;;;6275087;28;20053;-84
2022/09/29 06:09:09;;;;;;;6.55;2.88;;;9.40;99.90;;;;;;6275146;28;20414;-83
2022/09/29 06:12:11;;;;;;;4.22;2.15;;;9.50;99.90;;;;;;6273814;28;20049;-83
2022/09/29 06:15:13;;;;;;;6.53;3.50;;;9.50;99.90;;;;;;6292859;28;20051;-81
2022/09/29 06:18:14;;;;;;;11.70;4.05;;;9.60;99.90;;;;;;6282089;28;20044;-83
2022/09/29 06:21:18;;;;;;;8.48;2.90;;;9.60;99.90;;;;;;6273190;28;20510;-84
2022/09/29 06:24:21;;;;;;;6.53;2.83;;;9.70;99.90;;;;;;6273210;28;20045;-84
2022/09/29 06:27:23;;;;;;;9.18;3.83;;;9.80;99.90;;;;;;6273453;28;20056;-83
2022/09/29 06:30:25;;;;;;;5.45;2.75;;;10.00;99.90;;;;;;6273194;28;20056;-84
2022/09/29 06:33:27;;;;;;;6.72;2.10;;;10.20;99.90;;;;;;6274048;28;20049;-83
2022/09/29 06:40:00;;;;;;;5.28;2.42;;;10.60;99.90;;;;;;6236154;28;20406;-83
2022/09/29 06:43:02;;;;;;;7.20;3.63;;;10.90;99.90;;;;;;6272917;28;20044;-83
2022/09/29 06:46:04;;;;;;;10.10;3.08;;;11.00;99.90;;;;;;6273014;28;20099;-83
2022/09/29 06:49:06;;;;;;;8.18;2.80;;;11.00;99.90;;;;;;6271958;28;20048;-83
2022/09/29 06:52:08;;;;;;;8.52;2.42;;;11.10;99.90;;;;;;6271968;28;20045;-84
2022/09/29 06:55:11;;;;;;;5.93;2.42;;;11.30;99.90;;;;;;6272133;28;20054;-83
2022/09/29 06:58:13;;;;;;;6.47;2.83;;;11.50;99.90;;;;;;6272313;28;20049;-83
2022/09/29 07:01:14;;;;;;;3.65;2.63;;;11.60;99.90;;;;;;6273996;28;20048;-83
2022/09/29 07:04:17;;;;;;;7.65;2.92;;;11.80;99.90;;;;;;6246172;28;20044;-83
2022/09/29 07:07:19;;;;;;;7.43;2.88;;;12.00;99.90;;;;;;6252327;28;20502;-83
2022/09/29 07:10:22;;;;;;;10.25;3.20;;;12.20;99.90;;;;;;6276066;28;20056;-83
2022/09/29 07:13:24;;;;;;;6.28;2.42;;;12.40;99.90;;;;;;6260013;28;20414;-83
2022/09/29 07:16:26;;;;;;;7.28;2.75;;;12.50;99.90;;;;;;6260035;28;20049;-82
2022/09/29 07:19:28;;;;;;;6.30;2.20;;;12.90;99.90;;;;;;6272192;28;20423;-82
2022/09/29 07:22:29;;;;;;;5.05;1.92;;;13.30;99.90;;;;;;6274454;28;20056;-83
2022/09/29 07:25:33;;;;;;;3.70;2.38;;;13.70;99.90;;;;;;6275576;28;20049;-82
2022/09/29 07:28:35;;;;;;;5.97;2.47;;;14.00;99.90;;;;;;6272939;28;20426;-83
2022/09/29 07:31:37;;;;;;;4.97;2.08;;;14.30;99.90;;;;;;6274158;28;20063;-83
2022/09/29 07:34:38;;;;;;;4.60;2.05;;;14.70;99.90;;;;;;6272519;28;20057;-83
2022/09/29 07:37:40;;;;;;;5.38;1.60;;;15.20;99.90;;;;;;6274518;28;20052;-84
2022/09/29 07:40:43;;;;;;;4.68;1.98;;;15.80;99.90;;;;;;6263921;28;20041;-84
2022/09/29 07:43:45;;;;;;;4.97;2.15;;;15.90;99.90;;;;;;6265415;28;20510;-83
2022/09/29 07:46:48;;;;;;;5.47;1.90;;;15.90;99.90;;;;;;6271824;28;20067;-83
2022/09/29 07:49:50;;;;;;;11.00;2.15;;;15.90;99.90;;;;;;6272267;28;20052;-83
2022/09/29 07:52:52;;;;;;;3.85;2.15;;;15.70;99.90;;;;;;6273919;28;20049;-83
2022/09/29 07:55:55;;;;;;;12.07;5.15;;;15.70;99.90;;;;;;6287176;28;20049;-83
2022/09/29 07:58:57;;;;;;;6.55;2.55;;;15.70;99.90;;;;;;6293149;28;20048;-84
2022/09/29 08:01:58;;;;;;;3.85;2.03;;;15.70;99.90;;;;;;6277050;28;20049;-83
2022/09/29 08:05:00;;;;;;;7.13;2.53;;;16.10;99.90;;;;;;6276650;28;20037;-83
2022/09/29 08:08:03;;;;;;;7.28;2.85;;;16.60;99.90;;;;;;6278890;28;20051;-83
2022/09/29 08:11:08;;;;;;;5.88;3.08;;;17.10;98.80;;;;;;6276412;28;20044;-82
2022/09/29 08:14:11;;;;;;;10.00;2.05;;;17.30;98.50;;;;;;6269056;28;20045;-83
2022/09/29 08:17:12;;;;;;;10.48;1.90;;;17.70;97.60;;;;;;6277498;28;20056;-83
2022/09/29 08:20:14;;;;;;;5.25;2.22;;;18.00;96.80;;;;;;6271811;28;20399;-83
2022/09/29 08:23:16;;;;;;;6.88;2.05;;;18.10;96.10;;;;;;6273373;28;20045;-83
2022/09/29 08:26:21;;;;;;;6.25;2.00;;;18.40;95.60;;;;;;6273240;28;20049;-83
2022/09/29 08:29:22;;;;;;;3.30;1.27;;;19.00;94.80;;;;;;6274670;28;20060;-84
2022/09/29 08:32:24;;;;;;;3.13;1.48;;;19.70;93.20;;;;;;6275812;28;20045;-83
2022/09/29 08:35:26;;;;;;;3.60;1.50;;;20.60;90.30;;;;;;6276564;28;20049;-82
2022/09/29 08:38:28;;;;;;;6.20;2.20;;;21.20;88.00;;;;;;6280442;28;20053;-83
2022/09/29 08:41:42;;;;;;;2.78;1.35;;;21.30;87.00;;;;;;6281166;28;20064;-82
2022/09/29 08:44:49;;;;;;;3.33;1.40;;;21.30;85.90;;;;;;6279930;28;20048;-83
2022/09/29 08:47:52;;;;;;;4.10;1.25;;;21.40;83.80;;;;;;6279741;28;20041;-82
2022/09/29 08:50:58;;;;;;;7.15;1.75;;;21.70;83.00;;;;;;6279751;28;20507;-82
2022/09/29 08:54:07;;;;;;;3.35;1.52;;;21.90;81.50;;;;;;6280821;28;20081;-82
2022/09/29 08:57:17;;;;;;;6.40;1.85;;;22.50;79.70;;;;;;6279801;28;20044;-82
2022/09/29 09:00:20;;;;;;;2.35;1.25;;;23.00;78.00;;;;;;6279564;28;20060;-83
2022/09/29 09:03:41;;;;;;;3.85;1.13;;;22.90;76.30;;;;;;6280932;28;20049;-83
2022/09/29 09:06:53;;;;;;;2.50;0.95;;;22.60;76.20;;;;;;6279524;28;20047;-83
2022/09/29 09:10:02;;;;;;;3.80;1.08;;;22.40;76.10;;;;;;6280030;28;20071;-83
2022/09/29 09:13:27;;;;;;;4.85;1.33;;;22.20;76.40;;;;;;6279409;28;20045;-82
2022/09/29 09:16:35;;;;;;;4.60;1.55;;;22.20;75.80;;;;;;6279441;28;20049;-83
2022/09/29 09:19:58;;;;;;;7.70;2.08;;;22.90;74.30;;;;;;6278511;28;20056;-83
2022/09/29 09:23:04;;;;;;;3.65;1.60;;;22.90;73.30;;;;;;6278455;28;20041;-83
2022/09/29 09:26:08;;;;;;;5.00;1.58;;;22.60;72.90;;;;;;6279776;28;20060;-82
2022/09/29 09:29:19;;;;;;;9.52;2.03;;;22.10;74.10;;;;;;6278133;28;20048;-83
2022/09/29 09:32:26;;;;;;;2.90;1.80;;;21.90;75.10;;;;;;6277999;28;20044;-82
2022/09/29 09:35:35;;;;;;;7.73;1.77;;;21.80;74.90;;;;;;6278317;28;20044;-83
2022/09/29 09:38:46;;;;;;;5.18;2.13;;;21.60;75.30;;;;;;6278575;28;20310;-81
2022/09/29 09:41:51;;;;;;;5.18;2.38;;;21.50;76.40;;;;;;6279556;28;20048;-82
2022/09/29 09:44:59;;;;;;;7.07;3.13;;;21.80;77.30;;;;;;6279791;28;20387;-82
2022/09/29 09:48:07;;;;;;;7.35;3.65;;;22.10;76.50;;;;;;6280868;28;20053;-83
2022/09/29 09:51:27;;;;;;;9.50;4.32;;;22.00;75.50;;;;;;6279250;28;20041;-83
2022/09/29 09:54:34;;;;;;;5.10;3.00;;;21.80;75.60;;;;;;6281089;28;20525;-82
2022/09/29 09:57:55;;;;;;;7.70;3.22;;;21.60;76.10;;;;;;6282953;28;20055;-83
2022/09/29 10:01:01;;;;;;;10.70;3.55;;;21.50;76.10;;;;;;6281873;28;20068;-83
2022/09/29 10:04:03;;;;;;;7.97;2.95;;;21.30;76.70;;;;;;6285528;28;20049;-81
2022/09/29 10:07:05;;;;;;;7.43;3.60;;;21.10;77.10;;;;;;6280972;28;20047;-82
2022/09/29 10:10:17;;;;;;;4.35;2.95;;;21.00;77.40;;;;;;6283562;28;20640;-83
2022/09/29 10:13:19;;;;;;;4.72;2.80;;;20.70;77.60;;;;;;6281730;28;20052;-83
2022/09/29 10:16:28;;;;;;;5.55;2.20;;;20.50;78.70;;;;;;6281087;28;20053;-82
2022/09/29 10:19:53;;;;;;;5.88;3.03;;;20.40;79.10;;;;;;6283312;28;20106;-82
2022/09/29 10:23:18;;;;;;;6.43;2.50;;;21.00;78.70;;;;;;6280561;28;20041;-82
2022/09/29 10:26:24;;;;;;;6.32;3.53;;;21.60;76.50;;;;;;6281192;28;20052;-82
2022/09/29 10:29:32;;;;;;;4.22;2.40;;;22.30;74.70;;;;;;6282818;28;20503;-82
2022/09/29 10:32:36;;;;;;;8.77;3.03;;;22.90;73.00;;;;;;6279946;28;20052;-82
2022/09/29 10:35:40;;;;;;;4.53;1.80;;;23.40;70.70;;;;;;6280716;28;20055;-82
2022/09/29 10:38:46;;;;;;;4.57;2.08;;;23.40;69.10;;;;;;6278949;28;20045;-82
2022/09/29 10:41:53;;;;;;;3.47;1.90;;;23.70;67.40;;;;;;6279640;28;20060;-82
2022/09/29 10:45:02;;;;;;;6.78;1.90;;;23.60;67.90;;;;;;6280287;28;20053;-81
2022/09/29 10:48:12;;;;;;;5.03;1.90;;;23.40;68.10;;;;;;6279662;28;20052;-82
2022/09/29 10:51:22;;;;;;;2.65;1.48;;;23.40;67.90;;;;;;6280375;28;20048;-82
2022/09/29 10:54:25;;;;;;;3.67;1.65;;;23.60;66.20;;;;;;6281077;28;20045;-82
2022/09/29 10:57:30;;;;;;;2.92;1.25;;;23.60;65.90;;;;;;6282977;28;20079;-82
2022/09/29 11:00:35;;;;;;;3.45;1.73;;;23.70;65.30;;;;;;6282966;28;20398;-82
2022/09/29 11:03:41;;;;;;;3.17;0.98;;;23.80;65.90;;;;;;6283341;28;20447;-82
2022/09/29 11:06:42;;;;;;;3.47;1.35;;;23.90;64.70;;;;;;6288610;28;20481;-82
2022/09/29 11:09:44;;;;;;;2.88;1.27;;;23.90;64.40;;;;;;6279008;28;20053;-82
2022/09/29 11:12:47;;;;;;;3.67;1.55;;;23.90;63.80;;;;;;6277389;28;20045;-83
2022/09/29 11:15:50;;;;;;;2.80;1.30;;;23.60;63.50;;;;;;6267905;28;20180;-82
2022/09/29 11:22:27;;;;;;;3.22;1.65;;;23.00;66.50;;;;;;6262200;28;20084;-82
2022/09/29 11:26:06;;;;;;;6.13;1.55;;;22.70;67.00;;;;;;6277097;28;20045;-83
2022/09/29 11:29:16;;;;;;;;;;;22.40;67.90;;;;;;6283112;28;20045;-82
2022/09/29 11:32:30;;;;;;;5.45;1.92;;;22.20;67.90;;;;;;6281836;28;19921;-85
2022/09/29 11:35:45;;;;;;;2.05;1.33;;;21.80;69.10;;;;;;6281150;28;20041;-82
2022/09/29 11:38:59;;;;;;;3.80;1.63;;;21.60;70.10;;;;;;6280040;28;20056;-84
2022/09/29 11:42:14;;;;;;;11.25;2.60;;;21.50;70.30;;;;;;6280634;28;20144;-83
2022/09/29 11:45:21;;;;;;;5.22;1.73;;;21.50;70.70;;;;;;6277781;28;20453;-83
2022/09/29 11:48:52;;;;;;;27.77;10.68;;;21.50;70.30;;;;;;6265630;28;20056;-84
2022/09/29 11:52:12;;;;;;;3.30;2.03;;;21.30;69.60;;;;;;6272002;28;20048;-84
2022/09/29 11:55:32;;;;;;;2.40;1.27;;;21.00;69.80;;;;;;6273978;28;20758;-83
2022/09/29 11:58:50;;;;;;;10.70;2.25;;;20.70;70.40;;;;;;6280280;28;20060;-84
2022/09/29 12:02:04;;;;;;;4.18;2.17;;;20.70;71.20;;;;;;6281963;28;20402;-82
2022/09/29 12:05:15;;;;;;;4.05;2.03;;;20.80;71.90;;;;;;6281194;28;20049;-83
2022/09/29 12:09:20;;;;;;;5.18;2.13;;;21.10;71.10;;;;;;6280814;28;20041;-83
2022/09/29 12:12:32;;;;;;;4.82;1.85;;;21.20;70.50;;;;;;6277555;28;20049;-84
2022/09/29 12:15:49;;;;;;;3.00;1.75;;;21.40;70.50;;;;;;6277962;28;20053;-84
2022/09/29 12:19:02;;;;;;;3.45;1.38;;;21.30;71.00;;;;;;6273755;28;20124;-84
2022/09/29 12:22:10;;;;;;;4.07;2.10;;;21.30;71.30;;;;;;6283010;28;20049;-84
2022/09/29 12:25:16;;;;;;;6.77;1.70;;;21.10;69.50;;;;;;6284380;28;20052;-84
2022/09/29 12:28:23;;;;;;;4.28;1.75;;;20.70;70.90;;;;;;6275844;28;20718;-84
2022/09/29 12:31:29;;;;;;;4.00;2.00;;;20.60;72.00;;;;;;6275797;28;20092;-85
2022/09/29 12:34:42;;;;;;;4.65;2.22;;;20.70;71.30;;;;;;6277428;28;20049;-84
2022/09/29 12:37:52;;;;;;;7.50;2.20;;;20.80;71.30;;;;;;6279975;28;20052;-84
2022/09/29 12:41:05;;;;;;;4.10;2.42;;;21.00;71.20;;;;;;6278229;28;20049;-82
2022/09/29 12:44:14;;;;;;;4.57;1.85;;;20.90;70.00;;;;;;6280518;28;20420;-83
2022/09/29 12:47:23;;;;;;;2.15;1.60;;;20.50;70.60;;;;;;6271478;28;20465;-86
2022/09/29 12:50:29;;;;;;;5.57;3.05;;;20.20;71.60;;;;;;6254400;28;20060;-81
2022/09/29 12:53:35;;;;;;;5.63;2.63;;;19.80;72.90;;;;;;6259629;28;20053;-83
2022/09/29 12:56:40;;;;;;;3.40;2.22;;;19.50;74.50;;;;;;6276905;28;20044;-83
2022/09/29 12:59:46;;;;;;;6.55;2.42;;;19.30;75.90;;;;;;6276766;28;20044;-82
2022/09/29 13:03:25;;;;;;;7.93;3.47;;;19.30;74.70;;;;;;6282301;28;20064;-84
2022/09/29 13:07:09;;;;;;;7.95;2.65;;;19.10;74.80;;;;;;6279070;28;20049;-85
2022/09/29 13:10:34;;;;;;;3.05;1.80;;;19.00;76.10;;;;;;6203127;28;20058;-82
2022/09/29 13:14:02;;;;;;;2.97;1.80;;;19.10;75.70;;;;;;6210069;28;20069;-85
2022/09/29 13:17:19;;;;;;;5.13;2.50;;;19.10;75.90;;;;;;6269638;28;20049;-83
2022/09/29 13:20:48;;;;;;;6.70;1.50;;;18.90;76.90;;;;;;6254818;28;20053;-84
2022/09/29 13:24:06;;;;;;;5.13;2.38;;;18.90;75.80;;;;;;6255340;28;20045;-83
2022/09/29 13:27:29;;;;;;;4.85;1.52;;;18.90;75.50;;;;;;6255805;28;20048;-83
2022/09/29 13:30:36;;;;;;;4.05;1.80;;;18.90;75.70;;;;;;6254834;28;20495;-83
2022/09/29 13:33:39;;;;;;;7.35;1.60;;;18.90;76.40;;;;;;6255682;28;20052;-83
2022/09/29 13:36:44;;;;;;;5.45;1.88;;;19.00;76.90;;;;;;6254780;28;20052;-83
2022/09/29 13:39:57;;;;;;;4.10;1.98;;;19.20;75.50;;;;;;6255098;28;20049;-83
2022/09/29 13:43:01;;;;;;;8.05;1.85;;;19.10;74.90;;;;;;6259120;28;20302;-83
2022/09/29 13:46:26;;;;;;;5.05;1.50;;;19.10;75.80;;;;;;6259451;28;20046;-84
2022/09/29 13:49:30;;;;;;;8.23;1.67;;;19.30;76.60;;;;;;6273425;28;20049;-84
2022/09/29 13:52:40;;;;;;;11.32;6.65;;;19.40;75.10;;;;;;6279531;28;20051;-84
2022/09/29 13:55:52;;;;;;;4.07;1.83;;;19.40;75.50;;;;;;6272904;28;20120;-83
2022/09/29 13:58:59;;;;;;;3.38;1.40;;;19.30;75.20;;;;;;6276097;28;20041;-83
2022/09/29 14:02:18;;;;;;;3.28;0.82;;;19.50;74.70;;;;;;6278467;28;20056;-82
2022/09/29 14:05:46;;;;;;;3.05;0.80;;;19.00;72.30;;;;;;6276743;28;20055;-83
2022/09/29 14:08:52;;;;;;;1.70;0.50;;;18.70;72.60;;;;;;6276093;28;20045;-83
2022/09/29 14:11:56;;;;;;;3.15;0.40;;;18.40;73.60;;;;;;6275769;28;20096;-82
2022/09/29 14:15:00;;;;;;;1.17;0.60;;;18.20;74.50;;;;;;6273770;28;20050;-83
2022/09/29 14:18:10;;;;;;;1.30;0.40;;;18.10;73.30;;;;;;6271171;28;20045;-81
2022/09/29 14:21:33;;;;;;;2.80;0.65;;;18.00;73.50;;;;;;6276999;28;20055;-82
2022/09/29 14:24:43;;;;;;;0.77;0.28;;;17.90;73.40;;;;;;6274309;28;20064;-85
2022/09/29 14:27:48;;;;;;;0.98;0.30;;;18.00;72.90;;;;;;6274414;28;20045;-84
2022/09/29 14:30:54;;;;;;;0.55;0.30;;;18.00;73.10;;;;;;6268829;28;20132;-82
2022/09/29 14:34:01;;;;;;;1.95;0.10;;;18.00;71.70;;;;;;6273239;28;20059;-82
2022/09/29 14:37:03;;;;;;;1.17;0.38;;;18.00;71.10;;;;;;6275689;28;20041;-81
2022/09/29 14:43:37;;;;;;;1.05;0.38;;;17.80;72.00;;;;;;6255448;28;20049;-81
2022/09/29 14:54:02;;;;;;;0.57;0.22;;;17.70;72.90;;;;;;6254667;28;20487;-84
2022/09/29 14:57:14;;;;;;;1.75;0.55;;;17.80;72.50;;;;;;6254670;28;20037;-84
2022/09/29 15:00:19;;;;;;;1.42;0.45;;;17.90;73.60;;;;;;6275428;28;20089;-81
2022/09/29 15:03:33;;;;;;;5.65;2.92;;;17.90;72.10;;;;;;6275271;28;20052;-83
2022/09/29 15:06:50;;;;;;;2.47;0.20;;;17.70;72.50;;;;;;6272150;28;20041;-84
2022/09/29 15:09:54;;;;;;;1.33;0.22;;;17.60;73.60;;;;;;6279707;28;20052;-83
2022/09/29 15:13:22;;;;;;;4.15;1.17;;;17.70;74.50;;;;;;6280271;28;20049;-83
2022/09/29 15:16:32;;;;;;;1.27;0.25;;;17.70;73.70;;;;;;6286259;28;20048;-83
2022/09/29 15:19:51;;;;;;;0.75;0.30;;;17.70;73.60;;;;;;6260193;28;20073;-83
2022/09/29 15:23:15;;;;;;;0.85;0.35;;;17.70;74.00;;;;;;6255499;28;20041;-83
2022/09/29 15:26:21;;;;;;;0.90;0.38;;;17.60;74.20;;;;;;6258846;28;20049;-83
2022/09/29 15:29:24;;;;;;;0.63;0.30;;;17.50;74.60;;;;;;6280918;28;20422;-83
2022/09/29 15:32:28;;;;;;;1.73;0.77;;;17.50;74.80;;;;;;6279979;28;20067;-83
2022/09/29 15:35:31;;;;;;;1.98;0.40;;;17.50;75.20;;;;;;6280696;28;20593;-82
2022/09/29 15:38:38;;;;;;;3.47;0.40;;;17.50;75.70;;;;;;6277949;28;20513;-83
2022/09/29 15:41:43;;;;;;;1.70;0.60;;;17.60;76.50;;;;;;6280625;28;20156;-82
2022/09/29 15:44:53;;;;;;;3.40;0.85;;;17.60;75.70;;;;;;6280369;28;20051;-82
2022/09/29 15:48:04;;;;;;;1.63;0.60;;;17.50;76.10;;;;;;6271777;28;20043;-82
2022/09/29 15:51:19;;;;;;;5.18;1.40;;;17.40;76.20;;;;;;6279778;28;20072;-83
2022/09/29 15:54:22;;;;;;;5.57;0.60;;;17.40;76.90;;;;;;6279428;28;20076;-82
2022/09/29 15:57:45;;;;;;;2.38;0.40;;;17.30;78.40;;;;;;6273164;28;20041;-82
2022/09/29 16:00:47;;;;;;;1.45;0.40;;;17.30;79.60;;;;;;6280605;28;20049;-86
2022/09/29 16:03:52;;;;;;;1.55;0.40;;;17.20;79.80;;;;;;6281139;28;20113;-84
2022/09/29 16:06:54;;;;;;;21.33;10.23;;;17.10;79.90;;;;;;6279123;28;20102;-84
2022/09/29 16:10:08;;;;;;;9.18;3.92;;;17.10;80.10;;;;;;6278091;28;20084;-83
2022/09/29 16:13:20;;;;;;;7.28;2.83;;;17.00;81.00;;;;;;6280133;28;20059;-83
2022/09/29 16:16:34;;;;;;;7.80;5.05;;;17.00;81.60;;;;;;6280152;28;20418;-83
2022/09/29 16:19:37;;;;;;;5.28;3.35;;;16.90;80.70;;;;;;6278531;28;20112;-83
2022/09/29 16:22:40;;;;;;;3.67;2.40;;;16.80;81.50;;;;;;6280198;28;20111;-83
2022/09/29 16:25:43;;;;;;;11.52;0.82;;;16.80;82.50;;;;;;6278562;28;20175;-83
2022/09/29 16:29:27;;;;;;;3.50;0.70;;;16.80;83.40;;;;;;6280155;28;20139;-84
2022/09/29 16:32:40;;;;;;;2.30;0.50;;;16.80;84.30;;;;;;6283628;28;20095;-83
2022/09/29 16:36:04;;;;;;;2.00;0.30;;;16.70;85.50;;;;;;6281463;28;20512;-82
2022/09/29 16:39:06;;;;;;;6.40;0.88;;;16.50;87.00;;;;;;6277065;28;20048;-83